Penn Yan, NY

7:17 AM EST on March 05, 2015 (GMT -0500)
LaBelleVie 208 Main Street | Change Station
CLOSE
Current Station
Personal Weather Station
Location: Penn Yan, NY
Elevation: 743 ft
Nearby Weather Stations

Elev 743 ft 42.66 °N, 77.06 °W | Updated 13 seconds ago

Partly Cloudy
Partly Cloudy
13.6 °F
Feels Like 14 °F
N
2.3
Wind Variable Wind from NNW
Gusts 4.0 mph

Today
High -- | Low -- °F
--% Chance of Precip.
Yesterday
High -- | Low -- °F
Precip. -- in
6:37 AM 6:02 PM
Full, 100% visible
Pressure 30.24 in
Visibility 10.0 miles
Clouds Few 3100 ft
Few 4500 ft
Windchill 14 °F
Dew Point -4 °F
Humidity 41%
Rainfall in
Snow Depth Not available.
UV 0 out of 12
Pollen .40 out of 12
Air Quality Not available.
Flu Activity Not available.
METAR KPEO 051153Z AUTO 31007KT 10SM FEW031 FEW045 M11/M17 A3019 RMK AO2 SLP238 60000 T11061172 11033 21106 51020

More Conditions Fewer Conditions

Pressure 30.24 in
Visibility 10.0 miles
Clouds Few 3100 ft
Few 4500 ft
Windchill 14 °F
Dew Point -4 °F
Humidity 41%
Rainfall in
Snow Depth Not available.
UV 0 out of 12
Pollen .40 out of 12
Air Quality Not available.
Flu Activity Not available.
METAR KPEO 051153Z AUTO 31007KT 10SM FEW031 FEW045 M11/M17 A3019 RMK AO2 SLP238 60000 T11061172 11033 21106 51020

More Conditions Fewer Conditions

10-Day Weather Forecast

Almanac

Astronomy

Mar. 05, 2015 Rise Set
Actual Time
Civil Twilight
Nautical Twilight
Astronomical Twilight
Moon
Length of Visible Light
Length of Day
Tomorrow will be .
, % of the Moon is Illuminated

Today's Extremes

State Highs State Lows

Community

WunderPhotos

Upload Photos

1,802,715 photos uploaded!

WunderBlogs® & News

Nearby

Air Quality

  Air Quality AQ Index Pollutant
Not available.

Snow Depth

Station Depth Elevation

Earthquake Activity

City Distance Mag. Time & Date
Minimum magnitude displayed is 2.5.

Coastal Water Temperatures

Place Temperature

Nearby Weather Stations